sensor_id;sensor_type;location;lat;lon;timestamp;temperature;humidity
61323;DHT22;47203;48.428;11.974;2023-01-08T00:00:07;11.40;49.30
61323;DHT22;47203;48.428;11.974;2023-01-08T00:02:13;11.50;49.20
61323;DHT22;47203;48.428;11.974;2023-01-08T00:04:19;11.40;49.30
61323;DHT22;47203;48.428;11.974;2023-01-08T00:06:24;12.20;49.80
61323;DHT22;47203;48.428;11.974;2023-01-08T00:08:30;11.40;49.40
61323;DHT22;47203;48.428;11.974;2023-01-08T00:10:36;11.50;49.50
61323;DHT22;47203;48.428;11.974;2023-01-08T00:12:45;11.40;49.50
61323;DHT22;47203;48.428;11.974;2023-01-08T00:14:50;11.40;49.40
61323;DHT22;47203;48.428;11.974;2023-01-08T00:16:55;11.40;49.50
61323;DHT22;47203;48.428;11.974;2023-01-08T00:19:01;11.40;49.40
61323;DHT22;47203;48.428;11.974;2023-01-08T00:21:07;11.50;50.10
61323;DHT22;47203;48.428;11.974;2023-01-08T00:23:13;11.40;49.40
61323;DHT22;47203;48.428;11.974;2023-01-08T00:25:19;11.40;49.30
61323;DHT22;47203;48.428;11.974;2023-01-08T00:27:25;11.30;49.40
61323;DHT22;47203;48.428;11.974;2023-01-08T00:29:33;11.40;49.40
61323;DHT22;47203;48.428;11.974;2023-01-08T00:31:39;11.50;50.10
61323;DHT22;47203;48.428;11.974;2023-01-08T00:33:44;11.30;49.30
61323;DHT22;47203;48.428;11.974;2023-01-08T00:35:49;12.40;49.90
61323;DHT22;47203;48.428;11.974;2023-01-08T00:37:55;11.30;49.30
61323;DHT22;47203;48.428;11.974;2023-01-08T00:40:00;11.40;49.40
61323;DHT22;47203;48.428;11.974;2023-01-08T00:42:06;11.40;49.40
61323;DHT22;47203;48.428;11.974;2023-01-08T00:44:11;11.30;49.30
61323;DHT22;47203;48.428;11.974;2023-01-08T00:46:19;11.30;49.30
61323;DHT22;47203;48.428;11.974;2023-01-08T00:48:24;11.30;49.30
61323;DHT22;47203;48.428;11.974;2023-01-08T00:50:30;11.30;49.30
61323;DHT22;47203;48.428;11.974;2023-01-08T00:52:36;11.30;49.40
61323;DHT22;47203;48.428;11.974;2023-01-08T00:54:41;12.20;49.90
61323;DHT22;47203;48.428;11.974;2023-01-08T00:56:46;11.30;49.30
61323;DHT22;47203;48.428;11.974;2023-01-08T00:58:52;11.20;49.30
61323;DHT22;47203;48.428;11.974;2023-01-08T01:00:57;11.20;49.30
61323;DHT22;47203;48.428;11.974;2023-01-08T01:03:06;11.20;49.30
61323;DHT22;47203;48.428;11.974;2023-01-08T01:05:12;12.90;50.20
61323;DHT22;47203;48.428;11.974;2023-01-08T01:07:18;11.20;49.20
61323;DHT22;47203;48.428;11.974;2023-01-08T01:09:24;11.30;49.30
61323;DHT22;47203;48.428;11.974;2023-01-08T01:11:29;11.30;49.20
61323;DHT22;47203;48.428;11.974;2023-01-08T01:13:34;11.20;49.00
61323;DHT22;47203;48.428;11.974;2023-01-08T01:15:40;11.20;49.00
61323;DHT22;47203;48.428;11.974;2023-01-08T01:17:46;11.20;49.00
61323;DHT22;47203;48.428;11.974;2023-01-08T01:19:53;11.20;49.10
61323;DHT22;47203;48.428;11.974;2023-01-08T01:21:59;11.40;49.20
61323;DHT22;47203;48.428;11.974;2023-01-08T01:24:05;11.20;49.10
61323;DHT22;47203;48.428;11.974;2023-01-08T01:26:15;11.20;49.10
61323;DHT22;47203;48.428;11.974;2023-01-08T01:28:22;11.10;48.90
61323;DHT22;47203;48.428;11.974;2023-01-08T01:30:27;11.10;49.10
61323;DHT22;47203;48.428;11.974;2023-01-08T01:32:33;11.10;49.00
61323;DHT22;47203;48.428;11.974;2023-01-08T01:34:38;11.10;49.00
61323;DHT22;47203;48.428;11.974;2023-01-08T01:36:46;11.10;49.00
61323;DHT22;47203;48.428;11.974;2023-01-08T01:38:53;11.10;49.00
61323;DHT22;47203;48.428;11.974;2023-01-08T01:41:00;11.10;49.00
61323;DHT22;47203;48.428;11.974;2023-01-08T01:43:07;11.00;49.00
61323;DHT22;47203;48.428;11.974;2023-01-08T01:45:18;11.00;49.00
61323;DHT22;47203;48.428;11.974;2023-01-08T01:47:28;11.00;48.90
61323;DHT22;47203;48.428;11.974;2023-01-08T01:49:37;11.00;49.00
61323;DHT22;47203;48.428;11.974;2023-01-08T01:51:50;11.00;49.10
61323;DHT22;47203;48.428;11.974;2023-01-08T01:53:58;10.90;49.00
61323;DHT22;47203;48.428;11.974;2023-01-08T01:56:07;10.90;49.00
61323;DHT22;47203;48.428;11.974;2023-01-08T01:58:15;10.90;49.00
61323;DHT22;47203;48.428;11.974;2023-01-08T02:00:23;10.90;49.50
61323;DHT22;47203;48.428;11.974;2023-01-08T02:02:30;10.90;48.80
61323;DHT22;47203;48.428;11.974;2023-01-08T02:04:36;10.90;48.80
61323;DHT22;47203;48.428;11.974;2023-01-08T02:06:45;10.90;48.70
61323;DHT22;47203;48.428;11.974;2023-01-08T02:09:02;10.80;48.50
61323;DHT22;47203;48.428;11.974;2023-01-08T02:11:13;10.80;48.50
61323;DHT22;47203;48.428;11.974;2023-01-08T02:13:28;10.80;48.50
61323;DHT22;47203;48.428;11.974;2023-01-08T02:15:41;10.80;48.40
61323;DHT22;47203;48.428;11.974;2023-01-08T02:17:55;10.80;48.40
61323;DHT22;47203;48.428;11.974;2023-01-08T02:20:10;10.80;48.50
61323;DHT22;47203;48.428;11.974;2023-01-08T02:22:29;10.70;48.50
61323;DHT22;47203;48.428;11.974;2023-01-08T02:24:52;10.70;48.70
61323;DHT22;47203;48.428;11.974;2023-01-08T02:27:03;10.70;48.70
61323;DHT22;47203;48.428;11.974;2023-01-08T02:29:14;10.70;48.70
61323;DHT22;47203;48.428;11.974;2023-01-08T02:31:24;10.60;48.60
61323;DHT22;47203;48.428;11.974;2023-01-08T02:33:31;10.60;48.70
61323;DHT22;47203;48.428;11.974;2023-01-08T02:35:40;10.50;48.70
61323;DHT22;47203;48.428;11.974;2023-01-08T02:37:48;10.50;48.80
61323;DHT22;47203;48.428;11.974;2023-01-08T02:40:10;10.60;48.80
61323;DHT22;47203;48.428;11.974;2023-01-08T02:42:32;10.50;48.80
61323;DHT22;47203;48.428;11.974;2023-01-08T02:44:55;10.50;48.90
61323;DHT22;47203;48.428;11.974;2023-01-08T02:47:07;10.40;48.80
61323;DHT22;47203;48.428;11.974;2023-01-08T02:49:20;10.40;48.90
61323;DHT22;47203;48.428;11.974;2023-01-08T02:51:32;10.40;49.00
61323;DHT22;47203;48.428;11.974;2023-01-08T02:53:44;10.70;49.10
61323;DHT22;47203;48.428;11.974;2023-01-08T02:55:54;10.50;48.90
61323;DHT22;47203;48.428;11.974;2023-01-08T02:58:05;10.40;48.70
61323;DHT22;47203;48.428;11.974;2023-01-08T03:00:12;10.40;48.80
61323;DHT22;47203;48.428;11.974;2023-01-08T03:02:19;10.40;48.80
61323;DHT22;47203;48.428;11.974;2023-01-08T03:04:25;10.50;48.80
61323;DHT22;47203;48.428;11.974;2023-01-08T03:06:35;10.40;48.70
61323;DHT22;47203;48.428;11.974;2023-01-08T03:08:43;10.60;48.80
61323;DHT22;47203;48.428;11.974;2023-01-08T03:10:53;10.40;48.60
61323;DHT22;47203;48.428;11.974;2023-01-08T03:13:10;10.40;48.60
61323;DHT22;47203;48.428;11.974;2023-01-08T03:15:24;10.40;48.40
61323;DHT22;47203;48.428;11.974;2023-01-08T03:17:36;10.30;48.30
61323;DHT22;47203;48.428;11.974;2023-01-08T03:19:48;10.30;48.30
61323;DHT22;47203;48.428;11.974;2023-01-08T03:21:58;10.30;48.30
61323;DHT22;47203;48.428;11.974;2023-01-08T03:24:07;10.30;48.20
61323;DHT22;47203;48.428;11.974;2023-01-08T03:26:22;10.30;48.20
61323;DHT22;47203;48.428;11.974;2023-01-08T03:28:36;10.30;48.10
61323;DHT22;47203;48.428;11.974;2023-01-08T03:30:47;10.20;48.00
61323;DHT22;47203;48.428;11.974;2023-01-08T03:32:57;10.20;48.10
61323;DHT22;47203;48.428;11.974;2023-01-08T03:35:06;10.20;48.10
61323;DHT22;47203;48.428;11.974;2023-01-08T03:37:15;10.20;48.20
61323;DHT22;47203;48.428;11.974;2023-01-08T03:39:26;10.20;48.30
61323;DHT22;47203;48.428;11.974;2023-01-08T03:41:35;10.10;48.30
61323;DHT22;47203;48.428;11.974;2023-01-08T03:43:43;10.10;48.40
61323;DHT22;47203;48.428;11.974;2023-01-08T03:45:52;10.10;49.10
61323;DHT22;47203;48.428;11.974;2023-01-08T03:48:01;10.10;48.70
61323;DHT22;47203;48.428;11.974;2023-01-08T03:50:13;10.00;48.60
61323;DHT22;47203;48.428;11.974;2023-01-08T03:52:22;10.00;48.80
61323;DHT22;47203;48.428;11.974;2023-01-08T03:54:31;10.00;48.70
61323;DHT22;47203;48.428;11.974;2023-01-08T03:56:39;10.00;48.70
61323;DHT22;47203;48.428;11.974;2023-01-08T03:58:47;10.00;48.70
61323;DHT22;47203;48.428;11.974;2023-01-08T04:00:52;9.90;48.60
61323;DHT22;47203;48.428;11.974;2023-01-08T04:02:58;9.90;48.70
61323;DHT22;47203;48.428;11.974;2023-01-08T04:05:07;9.90;48.70
61323;DHT22;47203;48.428;11.974;2023-01-08T04:07:12;9.90;48.60
61323;DHT22;47203;48.428;11.974;2023-01-08T04:09:18;9.90;48.50
61323;DHT22;47203;48.428;11.974;2023-01-08T04:11:24;9.80;48.40
61323;DHT22;47203;48.428;11.974;2023-01-08T04:13:30;9.90;48.40
61323;DHT22;47203;48.428;11.974;2023-01-08T04:15:38;9.90;48.30
61323;DHT22;47203;48.428;11.974;2023-01-08T04:17:43;9.80;48.30
61323;DHT22;47203;48.428;11.974;2023-01-08T04:19:49;9.80;48.20
61323;DHT22;47203;48.428;11.974;2023-01-08T04:21:54;9.80;48.20
61323;DHT22;47203;48.428;11.974;2023-01-08T04:23:59;9.70;48.20
61323;DHT22;47203;48.428;11.974;2023-01-08T04:26:05;9.80;48.20
61323;DHT22;47203;48.428;11.974;2023-01-08T04:28:11;9.70;48.10
61323;DHT22;47203;48.428;11.974;2023-01-08T04:30:17;9.70;48.10
61323;DHT22;47203;48.428;11.974;2023-01-08T04:32:25;9.70;48.20
61323;DHT22;47203;48.428;11.974;2023-01-08T04:34:30;9.60;48.20
61323;DHT22;47203;48.428;11.974;2023-01-08T04:36:35;9.70;48.30
61323;DHT22;47203;48.428;11.974;2023-01-08T04:38:41;9.60;48.20
61323;DHT22;47203;48.428;11.974;2023-01-08T04:40:47;9.60;48.30
61323;DHT22;47203;48.428;11.974;2023-01-08T04:42:52;9.60;48.30
61323;DHT22;47203;48.428;11.974;2023-01-08T04:44:57;9.60;48.30
61323;DHT22;47203;48.428;11.974;2023-01-08T04:47:03;9.60;48.30
61323;DHT22;47203;48.428;11.974;2023-01-08T04:49:12;9.50;48.30
61323;DHT22;47203;48.428;11.974;2023-01-08T04:51:17;9.50;48.30
61323;DHT22;47203;48.428;11.974;2023-01-08T04:53:23;9.50;48.40
61323;DHT22;47203;48.428;11.974;2023-01-08T04:55:28;9.50;48.30
61323;DHT22;47203;48.428;11.974;2023-01-08T04:57:34;9.50;48.30
61323;DHT22;47203;48.428;11.974;2023-01-08T04:59:39;9.50;48.40
61323;DHT22;47203;48.428;11.974;2023-01-08T05:01:44;10.80;49.10
61323;DHT22;47203;48.428;11.974;2023-01-08T05:03:53;9.50;48.30
61323;DHT22;47203;48.428;11.974;2023-01-08T05:06:02;9.50;48.30
61323;DHT22;47203;48.428;11.974;2023-01-08T05:08:08;9.50;48.40
61323;DHT22;47203;48.428;11.974;2023-01-08T05:10:13;9.50;48.40
61323;DHT22;47203;48.428;11.974;2023-01-08T05:12:18;9.50;48.40
61323;DHT22;47203;48.428;11.974;2023-01-08T05:14:24;9.50;48.30
61323;DHT22;47203;48.428;11.974;2023-01-08T05:16:29;9.50;48.30
61323;DHT22;47203;48.428;11.974;2023-01-08T05:18:34;9.50;48.30
61323;DHT22;47203;48.428;11.974;2023-01-08T05:20:40;9.40;48.20
61323;DHT22;47203;48.428;11.974;2023-01-08T05:22:49;9.50;48.30
61323;DHT22;47203;48.428;11.974;2023-01-08T05:24:55;9.40;48.20
61323;DHT22;47203;48.428;11.974;2023-01-08T05:27:00;9.50;48.30
61323;DHT22;47203;48.428;11.974;2023-01-08T05:29:05;9.40;48.20
61323;DHT22;47203;48.428;11.974;2023-01-08T05:31:12;9.50;48.20
61323;DHT22;47203;48.428;11.974;2023-01-08T05:33:18;9.40;48.10
61323;DHT22;47203;48.428;11.974;2023-01-08T05:35:24;9.50;48.10
61323;DHT22;47203;48.428;11.974;2023-01-08T05:37:29;9.60;48.10
61323;DHT22;47203;48.428;11.974;2023-01-08T05:39:37;9.40;47.90
61323;DHT22;47203;48.428;11.974;2023-01-08T05:41:42;9.40;47.80
61323;DHT22;47203;48.428;11.974;2023-01-08T05:43:48;9.40;47.90
61323;DHT22;47203;48.428;11.974;2023-01-08T05:45:53;9.40;47.90
61323;DHT22;47203;48.428;11.974;2023-01-08T05:47:59;9.40;48.10
61323;DHT22;47203;48.428;11.974;2023-01-08T05:50:09;9.40;47.90
61323;DHT22;47203;48.428;11.974;2023-01-08T05:52:14;9.40;47.90
61323;DHT22;47203;48.428;11.974;2023-01-08T05:54:19;9.40;47.90
61323;DHT22;47203;48.428;11.974;2023-01-08T05:56:27;9.30;47.90
61323;DHT22;47203;48.428;11.974;2023-01-08T05:58:33;9.30;47.80
61323;DHT22;47203;48.428;11.974;2023-01-08T06:00:38;9.30;47.90
61323;DHT22;47203;48.428;11.974;2023-01-08T06:02:45;9.30;47.90
61323;DHT22;47203;48.428;11.974;2023-01-08T06:04:51;9.20;47.90
61323;DHT22;47203;48.428;11.974;2023-01-08T06:06:56;9.20;47.90
61323;DHT22;47203;48.428;11.974;2023-01-08T06:09:01;10.00;48.30
61323;DHT22;47203;48.428;11.974;2023-01-08T06:11:08;9.20;48.00
61323;DHT22;47203;48.428;11.974;2023-01-08T06:13:18;9.20;48.00
61323;DHT22;47203;48.428;11.974;2023-01-08T06:15:24;9.20;48.00
61323;DHT22;47203;48.428;11.974;2023-01-08T06:17:29;9.20;48.10
61323;DHT22;47203;48.428;11.974;2023-01-08T06:19:34;9.20;48.00
61323;DHT22;47203;48.428;11.974;2023-01-08T06:21:40;9.20;48.00
61323;DHT22;47203;48.428;11.974;2023-01-08T06:23:46;10.50;48.70
61323;DHT22;47203;48.428;11.974;2023-01-08T06:25:52;9.10;48.00
61323;DHT22;47203;48.428;11.974;2023-01-08T06:27:58;9.10;48.00
61323;DHT22;47203;48.428;11.974;2023-01-08T06:30:07;9.10;48.00
61323;DHT22;47203;48.428;11.974;2023-01-08T06:32:13;9.10;48.00
61323;DHT22;47203;48.428;11.974;2023-01-08T06:34:18;9.10;48.10
61323;DHT22;47203;48.428;11.974;2023-01-08T06:36:23;9.10;48.20
61323;DHT22;47203;48.428;11.974;2023-01-08T06:38:30;9.10;48.20
61323;DHT22;47203;48.428;11.974;2023-01-08T06:40:36;9.10;48.30
61323;DHT22;47203;48.428;11.974;2023-01-08T06:42:41;9.10;48.30
61323;DHT22;47203;48.428;11.974;2023-01-08T06:44:47;9.10;48.30
61323;DHT22;47203;48.428;11.974;2023-01-08T06:46:55;9.10;48.20
61323;DHT22;47203;48.428;11.974;2023-01-08T06:49:00;9.10;48.20
61323;DHT22;47203;48.428;11.974;2023-01-08T06:51:06;9.10;48.30
61323;DHT22;47203;48.428;11.974;2023-01-08T06:53:11;9.10;48.40
61323;DHT22;47203;48.428;11.974;2023-01-08T06:55:16;9.10;48.40
61323;DHT22;47203;48.428;11.974;2023-01-08T06:57:22;9.10;48.50
61323;DHT22;47203;48.428;11.974;2023-01-08T06:59:27;9.10;48.70
61323;DHT22;47203;48.428;11.974;2023-01-08T07:01:32;9.10;48.70
61323;DHT22;47203;48.428;11.974;2023-01-08T07:03:41;9.10;48.70
61323;DHT22;47203;48.428;11.974;2023-01-08T07:05:47;9.10;48.70
61323;DHT22;47203;48.428;11.974;2023-01-08T07:07:52;9.10;48.70
61323;DHT22;47203;48.428;11.974;2023-01-08T07:09:58;9.10;48.70
61323;DHT22;47203;48.428;11.974;2023-01-08T07:12:03;9.10;48.60
61323;DHT22;47203;48.428;11.974;2023-01-08T07:14:11;9.10;48.60
61323;DHT22;47203;48.428;11.974;2023-01-08T07:16:16;9.10;48.60
61323;DHT22;47203;48.428;11.974;2023-01-08T07:18:22;9.10;48.60
61323;DHT22;47203;48.428;11.974;2023-01-08T07:20:30;9.10;48.60
61323;DHT22;47203;48.428;11.974;2023-01-08T07:22:35;9.10;48.70
61323;DHT22;47203;48.428;11.974;2023-01-08T07:24:40;9.10;48.70
61323;DHT22;47203;48.428;11.974;2023-01-08T07:26:46;9.10;48.80
61323;DHT22;47203;48.428;11.974;2023-01-08T07:28:51;9.10;48.80
61323;DHT22;47203;48.428;11.974;2023-01-08T07:30:56;9.10;48.80
61323;DHT22;47203;48.428;11.974;2023-01-08T07:33:06;9.10;48.80
61323;DHT22;47203;48.428;11.974;2023-01-08T07:35:11;9.10;49.00
61323;DHT22;47203;48.428;11.974;2023-01-08T07:37:19;9.20;48.90
61323;DHT22;47203;48.428;11.974;2023-01-08T07:39:24;9.20;48.90
61323;DHT22;47203;48.428;11.974;2023-01-08T07:41:29;9.10;49.00
61323;DHT22;47203;48.428;11.974;2023-01-08T07:43:35;9.10;49.20
61323;DHT22;47203;48.428;11.974;2023-01-08T07:45:41;9.10;49.20
61323;DHT22;47203;48.428;11.974;2023-01-08T07:47:46;9.00;49.20
61323;DHT22;47203;48.428;11.974;2023-01-08T07:49:51;9.00;49.30
61323;DHT22;47203;48.428;11.974;2023-01-08T07:51:57;9.00;49.30
61323;DHT22;47203;48.428;11.974;2023-01-08T07:54:05;9.00;49.40
61323;DHT22;47203;48.428;11.974;2023-01-08T07:56:10;9.00;49.50
61323;DHT22;47203;48.428;11.974;2023-01-08T07:58:15;9.10;49.50
61323;DHT22;47203;48.428;11.974;2023-01-08T08:00:21;9.10;49.60
61323;DHT22;47203;48.428;11.974;2023-01-08T08:02:26;9.10;49.60
61323;DHT22;47203;48.428;11.974;2023-01-08T08:04:32;9.10;49.60
61323;DHT22;47203;48.428;11.974;2023-01-08T08:06:37;9.10;49.60
61323;DHT22;47203;48.428;11.974;2023-01-08T08:08:42;9.10;49.70
61323;DHT22;47203;48.428;11.974;2023-01-08T08:10:50;9.10;49.80
61323;DHT22;47203;48.428;11.974;2023-01-08T08:12:55;9.10;50.60
61323;DHT22;47203;48.428;11.974;2023-01-08T08:15:01;9.10;49.90
61323;DHT22;47203;48.428;11.974;2023-01-08T08:17:06;9.10;50.00
61323;DHT22;47203;48.428;11.974;2023-01-08T08:19:12;9.10;50.10
61323;DHT22;47203;48.428;11.974;2023-01-08T08:21:17;9.10;50.20
61323;DHT22;47203;48.428;11.974;2023-01-08T08:23:24;9.20;50.30
61323;DHT22;47203;48.428;11.974;2023-01-08T08:25:29;9.10;50.30
61323;DHT22;47203;48.428;11.974;2023-01-08T08:27:38;9.10;50.30
61323;DHT22;47203;48.428;11.974;2023-01-08T08:29:44;9.10;50.50
61323;DHT22;47203;48.428;11.974;2023-01-08T08:31:49;9.10;50.50
61323;DHT22;47203;48.428;11.974;2023-01-08T08:33:54;9.10;50.60
61323;DHT22;47203;48.428;11.974;2023-01-08T08:36:00;9.10;50.70
61323;DHT22;47203;48.428;11.974;2023-01-08T08:38:05;9.10;50.90
61323;DHT22;47203;48.428;11.974;2023-01-08T08:40:11;9.20;51.00
61323;DHT22;47203;48.428;11.974;2023-01-08T08:42:16;9.20;51.00
61323;DHT22;47203;48.428;11.974;2023-01-08T08:44:24;9.20;51.00
61323;DHT22;47203;48.428;11.974;2023-01-08T08:46:30;9.20;51.20
61323;DHT22;47203;48.428;11.974;2023-01-08T08:48:35;9.30;51.20
61323;DHT22;47203;48.428;11.974;2023-01-08T08:50:41;9.30;51.20
61323;DHT22;47203;48.428;11.974;2023-01-08T08:52:47;9.30;51.20
